Time;durP1;ratioP1;P1;durP2;ratioP2;P2;SDS_P1;SDS_P2;PMS_P1;PMS_P2;Temp;Humidity;BMP_temperature;BMP_pressure;BME280_temperature;BME280_humidity;BME280_pressure;Samples;Min_cycle;Max_cycle;Signal;HPM_P1;HPM_P2
2021/03/20 00:00:44;;;;;;;1.80;0.50;;;22.60;26.60;;;;;;5053256;28;20388;-45
2021/03/20 00:03:10;;;;;;;0.65;0.50;;;22.60;26.60;;;;;;5052748;28;20029;-52
2021/03/20 00:05:36;;;;;;;1.42;0.60;;;22.60;26.60;;;;;;5054768;28;20075;-53
2021/03/20 00:08:03;;;;;;;0.80;0.60;;;22.50;26.50;;;;;;5056587;28;20451;-50
2021/03/20 00:10:29;;;;;;;0.77;0.47;;;22.50;26.50;;;;;;5056916;28;20082;-51
2021/03/20 00:12:55;;;;;;;1.15;0.50;;;22.50;26.50;;;;;;5056956;28;20056;-53
2021/03/20 00:15:24;;;;;;;0.98;0.60;;;22.50;26.50;;;;;;5056481;28;20114;-53
2021/03/20 00:17:50;;;;;;;1.00;0.52;;;22.50;26.50;;;;;;5056816;28;20028;-51
2021/03/20 00:20:23;;;;;;;1.50;0.73;;;22.50;26.50;;;;;;5057015;28;20076;-49
2021/03/20 00:22:49;;;;;;;1.60;0.73;;;22.50;26.50;;;;;;5038618;28;20017;-55
2021/03/20 00:25:16;;;;;;;0.77;0.30;;;22.50;26.50;;;;;;5057496;28;20020;-50
2021/03/20 00:27:41;;;;;;;1.00;0.50;;;22.50;26.50;;;;;;5056157;28;20041;-51
2021/03/20 00:30:08;;;;;;;1.10;0.50;;;22.40;26.50;;;;;;5056981;28;20416;-48
2021/03/20 00:32:34;;;;;;;1.50;0.70;;;22.50;26.50;;;;;;5056536;28;20348;-50
2021/03/20 00:35:00;;;;;;;1.02;0.57;;;22.40;26.50;;;;;;5057291;28;20045;-54
2021/03/20 00:37:27;;;;;;;1.10;0.57;;;22.40;26.50;;;;;;5055723;28;20524;-52
2021/03/20 00:39:53;;;;;;;0.50;0.38;;;22.40;26.50;;;;;;5056330;28;20043;-54
2021/03/20 00:42:19;;;;;;;0.90;0.60;;;22.40;26.50;;;;;;5056262;28;20425;-56
2021/03/20 00:44:44;;;;;;;0.90;0.60;;;22.40;26.50;;;;;;5038787;28;20036;-54
2021/03/20 00:47:10;;;;;;;1.13;0.50;;;22.40;26.50;;;;;;5038502;28;20106;-56
2021/03/20 00:49:37;;;;;;;1.30;0.60;;;22.40;26.50;;;;;;5055717;28;20043;-50
2021/03/20 00:52:04;;;;;;;0.75;0.57;;;22.40;26.50;;;;;;5056476;28;20127;-57
2021/03/20 00:54:29;;;;;;;1.45;0.60;;;22.40;26.50;;;;;;5055537;28;20028;-48
2021/03/20 00:56:55;;;;;;;1.33;0.70;;;22.40;26.50;;;;;;5056805;28;20029;-53
2021/03/20 00:59:21;;;;;;;0.60;0.50;;;22.40;26.50;;;;;;5055605;28;20017;-52
2021/03/20 01:01:47;;;;;;;1.33;0.88;;;22.40;26.50;;;;;;5056461;28;20044;-54
2021/03/20 01:04:13;;;;;;;0.70;0.50;;;22.30;26.50;;;;;;5055894;28;20130;-52
2021/03/20 01:06:39;;;;;;;0.47;0.45;;;22.40;27.00;;;;;;5038503;28;20435;-50
2021/03/20 01:09:06;;;;;;;0.80;0.52;;;22.40;26.50;;;;;;5037903;28;20072;-51
2021/03/20 01:11:32;;;;;;;1.35;0.63;;;22.30;26.40;;;;;;5055564;28;20060;-55
2021/03/20 01:13:59;;;;;;;1.58;0.63;;;22.30;26.40;;;;;;5056082;28;20086;-50
2021/03/20 01:16:26;;;;;;;0.93;0.63;;;22.30;26.40;;;;;;5054739;28;20064;-52
2021/03/20 01:18:52;;;;;;;0.63;0.50;;;22.30;26.40;;;;;;5037889;28;20113;-58
2021/03/20 01:21:19;;;;;;;0.88;0.60;;;22.30;26.40;;;;;;5055903;28;20029;-52
2021/03/20 01:23:45;;;;;;;0.70;0.50;;;22.30;26.40;;;;;;5055554;28;20025;-53
2021/03/20 01:26:11;;;;;;;1.55;0.60;;;22.30;26.40;;;;;;5056116;28;20373;-57
2021/03/20 01:28:40;;;;;;;1.30;0.73;;;22.30;26.30;;;;;;5055101;28;20107;-54
2021/03/20 01:31:07;;;;;;;1.05;0.57;;;22.30;26.30;;;;;;5055755;28;20040;-57
2021/03/20 01:33:33;;;;;;;1.55;0.52;;;22.30;26.30;;;;;;5055890;28;20569;-54
2021/03/20 01:35:59;;;;;;;0.68;0.50;;;22.20;26.30;;;;;;5055316;28;20028;-57
2021/03/20 01:38:25;;;;;;;0.65;0.50;;;22.20;26.30;;;;;;5055733;28;20035;-57
2021/03/20 01:40:57;;;;;;;0.77;0.50;;;22.20;26.30;;;;;;5054720;28;20037;-48
2021/03/20 01:43:25;;;;;;;0.93;0.47;;;22.20;26.30;;;;;;5055179;28;20078;-54
2021/03/20 01:45:51;;;;;;;1.17;0.68;;;22.20;26.30;;;;;;5055459;28;20025;-54
2021/03/20 01:48:23;;;;;;;1.70;0.50;;;22.20;26.20;;;;;;5054812;28;20092;-52
2021/03/20 01:51:01;;;;;;;0.63;0.60;;;22.20;26.20;;;;;;5055638;28;20025;-51
2021/03/20 01:53:48;;;;;;;0.75;0.40;;;22.20;26.20;;;;;;5054748;28;20041;-51
2021/03/20 01:56:21;;;;;;;0.82;0.45;;;22.20;26.20;;;;;;5055504;28;20037;-47
2021/03/20 01:58:51;;;;;;;0.50;0.50;;;22.20;26.20;;;;;;5054734;28;20039;-53
2021/03/20 02:01:20;;;;;;;1.10;0.60;;;22.10;26.10;;;;;;5055218;28;20347;-50
2021/03/20 02:03:46;;;;;;;0.98;0.60;;;22.10;26.10;;;;;;5054323;28;20033;-51
2021/03/20 02:06:12;;;;;;;0.63;0.40;;;22.20;26.10;;;;;;5055098;28;20025;-52
2021/03/20 02:08:41;;;;;;;0.80;0.60;;;22.10;26.10;;;;;;5055126;28;20036;-52
2021/03/20 02:11:19;;;;;;;1.50;0.88;;;22.10;26.00;;;;;;5055059;28;20033;-55
2021/03/20 02:13:51;;;;;;;0.73;0.50;;;22.10;26.10;;;;;;5054540;28;20456;-49
2021/03/20 02:16:24;;;;;;;0.93;0.47;;;22.10;26.10;;;;;;5036111;28;20052;-55
2021/03/20 02:19:13;;;;;;;1.25;0.63;;;22.10;26.10;;;;;;5054606;28;20056;-53
2021/03/20 02:22:02;;;;;;;0.73;0.50;;;22.10;26.10;;;;;;5040566;28;20047;-56
2021/03/20 02:24:49;;;;;;;0.57;0.50;;;22.10;26.00;;;;;;5053827;28;20364;-56
2021/03/20 02:27:37;;;;;;;1.88;0.50;;;22.10;26.00;;;;;;5054770;28;20099;-51
2021/03/20 02:30:26;;;;;;;0.70;0.50;;;22.10;26.00;;;;;;5052643;28;20108;-55
2021/03/20 02:32:58;;;;;;;0.55;0.43;;;22.10;26.00;;;;;;5053889;28;20041;-55
2021/03/20 02:35:32;;;;;;;0.60;0.60;;;22.00;25.90;;;;;;5054249;28;20424;-53
2021/03/20 02:38:07;;;;;;;0.80;0.55;;;22.00;25.90;;;;;;5054740;28;20254;-52
2021/03/20 02:41:06;;;;;;;1.13;0.68;;;22.00;25.90;;;;;;5053840;28;20035;-51
2021/03/20 02:44:00;;;;;;;0.88;0.40;;;22.00;25.90;;;;;;5053268;28;20040;-54
2021/03/20 02:46:44;;;;;;;0.60;0.40;;;22.00;25.80;;;;;;5035996;28;20033;-51
2021/03/20 02:49:43;;;;;;;0.60;0.50;;;22.00;25.80;;;;;;5054336;28;20095;-50
2021/03/20 02:52:49;;;;;;;1.77;0.70;;;22.00;25.80;;;;;;5000801;28;20441;-57
2021/03/20 02:55:26;;;;;;;1.00;0.60;;;22.00;25.80;;;;;;5053863;28;20158;-50
2021/03/20 02:58:14;;;;;;;0.50;0.50;;;22.00;25.80;;;;;;5054069;28;20111;-56
2021/03/20 03:00:46;;;;;;;1.05;0.50;;;22.00;25.80;;;;;;5053249;28;20162;-52
2021/03/20 03:03:14;;;;;;;0.60;0.50;;;22.00;25.80;;;;;;5053941;28;20033;-55
2021/03/20 03:05:58;;;;;;;0.40;0.40;;;22.00;25.80;;;;;;5036163;28;20435;-54
2021/03/20 03:08:40;;;;;;;0.90;0.53;;;22.00;25.70;;;;;;5054187;28;20024;-51
2021/03/20 03:11:32;;;;;;;0.77;0.40;;;22.00;25.80;;;;;;5053288;28;20029;-56
2021/03/20 03:14:17;;;;;;;0.80;0.50;;;22.00;25.70;;;;;;5054195;28;20033;-53
2021/03/20 03:16:50;;;;;;;0.68;0.38;;;21.90;25.70;;;;;;5053604;28;20155;-56
2021/03/20 03:19:47;;;;;;;0.47;0.40;;;21.90;25.70;;;;;;5054109;28;20025;-53
2021/03/20 03:22:25;;;;;;;0.75;0.40;;;21.90;25.70;;;;;;5052799;28;20032;-56
2021/03/20 03:24:56;;;;;;;0.73;0.50;;;21.90;25.70;;;;;;5036031;28;20056;-55
2021/03/20 03:27:25;;;;;;;0.68;0.60;;;21.90;25.80;;;;;;5053535;28;20036;-52
2021/03/20 03:29:51;;;;;;;0.80;0.57;;;21.90;25.70;;;;;;5052808;28;20025;-56
2021/03/20 03:32:31;;;;;;;1.00;0.60;;;21.90;25.70;;;;;;5053714;28;20127;-52
2021/03/20 03:35:21;;;;;;;0.52;0.50;;;21.90;25.70;;;;;;5052781;28;20029;-52
2021/03/20 03:38:11;;;;;;;2.63;0.60;;;21.90;25.70;;;;;;5053149;28;20182;-49
2021/03/20 03:40:50;;;;;;;0.82;0.50;;;21.90;25.70;;;;;;5037773;28;20033;-55
2021/03/20 03:43:18;;;;;;;0.98;0.50;;;21.90;25.70;;;;;;5038184;28;20106;-49
2021/03/20 03:45:45;;;;;;;0.93;0.57;;;21.80;25.60;;;;;;5056029;28;20138;-53
2021/03/20 03:48:13;;;;;;;1.17;0.60;;;21.80;25.60;;;;;;5057726;28;20079;-53
2021/03/20 03:50:40;;;;;;;0.40;0.40;;;21.80;25.60;;;;;;5056911;28;20090;-52
2021/03/20 03:53:08;;;;;;;0.70;0.50;;;21.80;25.60;;;;;;5057212;28;20041;-53
2021/03/20 03:55:35;;;;;;;0.50;0.50;;;21.80;25.60;;;;;;5057549;28;20420;-45
2021/03/20 03:58:31;;;;;;;0.57;0.50;;;21.80;25.60;;;;;;5057597;28;20285;-49
2021/03/20 04:01:13;;;;;;;0.70;0.52;;;21.80;25.60;;;;;;5048311;28;20105;-51
2021/03/20 04:04:04;;;;;;;0.85;0.60;;;21.80;25.60;;;;;;5057368;28;20101;-56
2021/03/20 04:06:49;;;;;;;0.85;0.70;;;21.80;25.60;;;;;;5056575;28;20098;-49
2021/03/20 04:09:42;;;;;;;0.75;0.70;;;21.80;25.60;;;;;;5037565;28;20029;-54
2021/03/20 04:12:13;;;;;;;0.70;0.50;;;21.80;25.50;;;;;;5038800;28;20614;-53
2021/03/20 04:14:57;;;;;;;0.88;0.57;;;21.70;25.50;;;;;;5056932;28;20032;-51
2021/03/20 04:17:38;;;;;;;0.90;0.50;;;21.70;26.00;;;;;;5056202;28;20041;-53
2021/03/20 04:20:10;;;;;;;1.17;0.50;;;21.70;25.50;;;;;;5056981;28;20429;-55
2021/03/20 04:22:47;;;;;;;1.00;0.50;;;21.70;25.50;;;;;;5057494;28;20029;-47
2021/03/20 04:25:40;;;;;;;0.70;0.52;;;21.70;25.40;;;;;;5057415;28;20378;-49
2021/03/20 04:28:32;;;;;;;0.50;0.50;;;21.70;25.40;;;;;;5038521;28;20266;-49
2021/03/20 04:31:12;;;;;;;0.95;0.60;;;21.70;25.40;;;;;;5057113;28;20171;-54
2021/03/20 04:33:57;;;;;;;0.90;0.60;;;21.70;25.40;;;;;;5039402;28;20468;-47
2021/03/20 04:36:32;;;;;;;2.65;0.60;;;21.70;25.40;;;;;;5057504;28;20352;-49
2021/03/20 04:39:00;;;;;;;0.93;0.50;;;21.70;25.40;;;;;;5057103;28;20033;-49
2021/03/20 04:41:27;;;;;;;0.50;0.35;;;21.70;25.50;;;;;;5056447;28;20017;-56
2021/03/20 04:43:54;;;;;;;0.93;0.50;;;21.70;25.50;;;;;;5039096;28;20379;-55
2021/03/20 04:46:23;;;;;;;1.33;0.60;;;21.60;25.40;;;;;;5056268;28;20116;-52
2021/03/20 04:49:12;;;;;;;0.60;0.50;;;21.60;25.40;;;;;;5056709;28;20041;-53
2021/03/20 04:51:45;;;;;;;0.80;0.63;;;21.60;25.40;;;;;;4999213;28;20045;-52
2021/03/20 04:54:18;;;;;;;0.82;0.40;;;21.60;25.40;;;;;;5038927;28;20025;-51
2021/03/20 04:56:52;;;;;;;1.20;0.63;;;21.70;25.40;;;;;;5057180;28;20473;-48
2021/03/20 05:00:05;;;;;;;0.77;0.50;;;21.60;25.40;;;;;;5039008;28;20359;-48
2021/03/20 05:02:38;;;;;;;0.77;0.50;;;21.60;25.40;;;;;;4977586;28;20122;-54
2021/03/20 05:05:16;;;;;;;0.82;0.70;;;21.60;25.40;;;;;;5046516;28;20124;-53
2021/03/20 05:07:43;;;;;;;0.68;0.50;;;21.60;25.40;;;;;;5037254;28;20036;-54
2021/03/20 05:10:18;;;;;;;0.73;0.50;;;21.60;25.40;;;;;;5056657;28;20053;-52
2021/03/20 05:12:47;;;;;;;0.85;0.50;;;21.60;25.30;;;;;;5055735;28;20051;-50
2021/03/20 05:15:24;;;;;;;1.17;0.70;;;21.60;25.40;;;;;;5056335;28;20029;-58
2021/03/20 05:17:50;;;;;;;0.95;0.52;;;21.60;25.30;;;;;;5055310;28;20044;-52
2021/03/20 05:20:16;;;;;;;1.25;0.52;;;21.60;25.30;;;;;;5056380;28;20120;-56
2021/03/20 05:22:42;;;;;;;0.45;0.45;;;21.60;25.30;;;;;;5037593;28;20094;-52
2021/03/20 05:25:16;;;;;;;1.40;0.70;;;21.60;25.30;;;;;;5056033;28;20059;-55
2021/03/20 05:27:43;;;;;;;0.82;0.50;;;21.60;25.30;;;;;;5055667;28;20040;-57
2021/03/20 05:30:11;;;;;;;0.60;0.50;;;21.50;25.30;;;;;;5055962;28;20037;-51
2021/03/20 05:32:38;;;;;;;1.60;0.60;;;21.50;25.30;;;;;;5055990;28;20036;-51
2021/03/20 05:35:08;;;;;;;0.77;0.60;;;21.50;25.30;;;;;;5054589;28;20044;-55
2021/03/20 05:37:39;;;;;;;0.73;0.52;;;21.50;25.30;;;;;;5055234;28;20028;-57
2021/03/20 05:40:16;;;;;;;1.25;0.60;;;21.50;25.20;;;;;;5052416;28;20033;-56
2021/03/20 05:43:03;;;;;;;0.60;0.50;;;21.50;25.20;;;;;;5054513;28;20024;-56
2021/03/20 05:45:46;;;;;;;0.75;0.60;;;21.50;25.20;;;;;;5055832;28;20029;-49
2021/03/20 05:48:24;;;;;;;0.60;0.60;;;21.50;25.20;;;;;;5055376;28;20029;-56
2021/03/20 05:50:53;;;;;;;0.88;0.57;;;21.50;25.20;;;;;;5055332;28;20029;-58
2021/03/20 05:53:44;;;;;;;1.23;0.80;;;21.50;25.20;;;;;;5054328;28;20048;-54
2021/03/20 05:56:22;;;;;;;0.52;0.50;;;21.50;25.30;;;;;;5046268;28;20090;-54
2021/03/20 05:58:47;;;;;;;1.05;0.70;;;21.50;25.30;;;;;;5054343;28;20083;-52
2021/03/20 06:01:49;;;;;;;0.68;0.50;;;21.50;25.30;;;;;;5055417;28;20033;-57
2021/03/20 06:04:39;;;;;;;0.60;0.50;;;21.50;25.30;;;;;;4959332;28;20081;-54
2021/03/20 06:07:50;;;;;;;0.75;0.52;;;21.50;25.30;;;;;;5039423;28;20041;-56
2021/03/20 06:10:39;;;;;;;0.50;0.47;;;21.50;25.30;;;;;;5006595;28;20048;-52
2021/03/20 06:13:20;;;;;;;0.77;0.55;;;21.40;25.20;;;;;;5039968;28;20037;-54
2021/03/20 06:15:52;;;;;;;1.15;0.60;;;21.40;25.30;;;;;;5054724;28;20452;-55
2021/03/20 06:18:44;;;;;;;1.00;0.60;;;21.40;25.20;;;;;;5036774;28;20060;-56
2021/03/20 06:21:42;;;;;;;1.00;0.50;;;21.40;25.20;;;;;;4991420;28;20140;-53
2021/03/20 06:24:22;;;;;;;0.63;0.50;;;21.40;25.20;;;;;;5054763;28;20359;-54
2021/03/20 06:26:50;;;;;;;0.80;0.50;;;21.40;25.30;;;;;;5006074;28;20043;-50
2021/03/20 06:29:25;;;;;;;0.88;0.50;;;21.40;25.30;;;;;;5019571;28;20094;-50
2021/03/20 06:31:56;;;;;;;1.20;0.60;;;21.40;25.30;;;;;;5036179;28;20036;-56
2021/03/20 06:34:35;;;;;;;1.17;0.70;;;21.40;25.30;;;;;;5042385;28;20045;-54
2021/03/20 06:37:08;;;;;;;1.13;0.70;;;21.40;25.30;;;;;;5053603;28;20364;-57
2021/03/20 06:39:42;;;;;;;0.65;0.60;;;21.40;25.20;;;;;;5054102;28;20030;-56
2021/03/20 06:42:20;;;;;;;0.52;0.40;;;21.40;25.30;;;;;;5053688;28;20060;-54
2021/03/20 06:44:48;;;;;;;1.15;0.70;;;21.40;25.30;;;;;;5054347;28;20090;-52
2021/03/20 06:47:20;;;;;;;0.98;0.60;;;21.40;25.20;;;;;;5053355;28;20029;-57
2021/03/20 06:49:59;;;;;;;1.33;0.52;;;21.40;25.20;;;;;;5054318;28;20047;-52
2021/03/20 06:52:26;;;;;;;1.15;0.57;;;21.30;25.10;;;;;;5053998;28;20044;-59
2021/03/20 06:54:57;;;;;;;0.70;0.52;;;21.40;25.20;;;;;;5053863;28;20032;-51
2021/03/20 06:57:23;;;;;;;0.70;0.57;;;21.40;25.20;;;;;;5053842;28;20016;-55
2021/03/20 06:59:49;;;;;;;1.20;0.65;;;21.40;25.20;;;;;;5053614;28;20140;-53
2021/03/20 07:02:35;;;;;;;0.60;0.60;;;21.30;25.10;;;;;;5053754;28;20100;-48
2021/03/20 07:05:08;;;;;;;0.77;0.47;;;21.40;25.10;;;;;;5054054;28;20091;-49
2021/03/20 07:07:53;;;;;;;0.98;0.52;;;21.40;25.10;;;;;;5053563;28;20355;-49
2021/03/20 07:10:32;;;;;;;1.13;0.60;;;21.40;25.10;;;;;;5053882;28;20351;-55
2021/03/20 07:13:19;;;;;;;0.50;0.47;;;21.40;25.10;;;;;;5054003;28;20121;-52
2021/03/20 07:16:07;;;;;;;0.85;0.50;;;21.30;25.00;;;;;;5033817;28;20045;-51
2021/03/20 07:18:38;;;;;;;0.73;0.60;;;21.30;25.00;;;;;;5049626;28;20071;-56
2021/03/20 07:21:18;;;;;;;1.02;0.55;;;21.30;25.00;;;;;;5053492;28;20079;-54
2021/03/20 07:24:08;;;;;;;1.13;0.60;;;21.30;24.90;;;;;;5052672;28;20028;-55
2021/03/20 07:26:51;;;;;;;1.02;0.50;;;21.30;24.90;;;;;;5053704;28;20043;-53
2021/03/20 07:29:18;;;;;;;0.40;0.40;;;21.30;24.90;;;;;;5053868;28;20021;-54
2021/03/20 07:31:58;;;;;;;0.52;0.40;;;21.30;24.80;;;;;;5053219;28;20029;-53
2021/03/20 07:34:29;;;;;;;0.88;0.50;;;21.30;24.80;;;;;;5036238;28;20115;-52
2021/03/20 07:37:21;;;;;;;1.17;0.50;;;21.30;24.80;;;;;;5053361;28;20046;-51
2021/03/20 07:39:53;;;;;;;0.75;0.50;;;21.30;24.80;;;;;;5036070;28;20041;-50
2021/03/20 07:42:26;;;;;;;1.25;0.50;;;21.30;24.80;;;;;;5046714;28;20029;-50
2021/03/20 07:45:04;;;;;;;0.70;0.50;;;21.30;24.90;;;;;;5053186;28;20075;-47
2021/03/20 07:47:39;;;;;;;1.85;0.50;;;21.30;24.90;;;;;;5053717;28;20029;-54
2021/03/20 07:50:21;;;;;;;0.70;0.30;;;21.40;25.00;;;;;;5054270;28;20025;-54
2021/03/20 07:52:59;;;;;;;1.00;0.55;;;21.40;25.00;;;;;;5053265;28;20064;-52
2021/03/20 07:55:26;;;;;;;0.75;0.50;;;21.50;25.00;;;;;;5034594;28;20029;-50
2021/03/20 07:57:58;;;;;;;1.15;0.50;;;21.50;25.00;;;;;;5053345;28;20044;-49
2021/03/20 08:00:33;;;;;;;0.60;0.57;;;21.60;25.00;;;;;;5052795;28;20029;-58
2021/03/20 08:03:17;;;;;;;1.38;0.52;;;21.60;24.80;;;;;;5038003;28;20325;-53
2021/03/20 08:05:43;;;;;;;0.47;0.30;;;21.60;24.70;;;;;;5044535;28;20057;-57
2021/03/20 08:08:26;;;;;;;1.45;0.80;;;21.60;24.70;;;;;;5053067;28;20078;-59
2021/03/20 08:10:57;;;;;;;1.33;0.70;;;21.60;24.60;;;;;;5044605;28;20059;-55
2021/03/20 08:13:26;;;;;;;0.73;0.50;;;21.70;24.60;;;;;;5053228;28;20036;-54
2021/03/20 08:15:58;;;;;;;1.00;0.70;;;21.70;24.60;;;;;;5051964;28;20067;-54
2021/03/20 08:18:26;;;;;;;1.52;0.93;;;21.70;24.50;;;;;;5053496;28;20029;-58
2021/03/20 08:21:15;;;;;;;0.75;0.57;;;21.80;24.50;;;;;;5051968;28;20033;-49
2021/03/20 08:23:50;;;;;;;1.15;0.60;;;21.90;24.50;;;;;;5004079;28;20045;-55
2021/03/20 08:26:30;;;;;;;1.02;0.40;;;22.00;24.50;;;;;;5035359;28;20368;-53
2021/03/20 08:28:56;;;;;;;1.95;0.45;;;22.10;24.40;;;;;;5032311;28;20024;-51
2021/03/20 08:31:37;;;;;;;0.85;0.50;;;22.20;24.40;;;;;;5056878;28;20029;-51
2021/03/20 08:34:24;;;;;;;0.75;0.50;;;22.30;24.30;;;;;;5056381;28;20041;-56
2021/03/20 08:37:27;;;;;;;0.90;0.43;;;22.40;24.20;;;;;;5057102;28;20064;-58
2021/03/20 08:40:14;;;;;;;0.88;0.50;;;22.50;24.10;;;;;;5028394;28;20455;-50
2021/03/20 08:42:52;;;;;;;0.82;0.50;;;22.60;24.10;;;;;;5056443;28;20033;-49
2021/03/20 08:45:41;;;;;;;0.88;0.60;;;22.80;24.20;;;;;;5056257;28;20033;-52
2021/03/20 08:48:06;;;;;;;1.65;0.70;;;22.90;24.20;;;;;;5054787;28;20036;-57
2021/03/20 08:51:01;;;;;;;1.10;0.75;;;22.90;24.20;;;;;;5038922;28;20047;-55
2021/03/20 08:54:12;;;;;;;1.52;0.60;;;23.00;24.10;;;;;;5056390;28;20029;-54
2021/03/20 08:56:51;;;;;;;1.27;0.68;;;23.10;24.10;;;;;;4973056;28;20039;-55
2021/03/20 08:59:29;;;;;;;0.88;0.60;;;23.30;24.00;;;;;;4957276;28;20037;-55
2021/03/20 09:02:04;;;;;;;0.77;0.50;;;23.30;23.90;;;;;;5008399;28;20068;-52
2021/03/20 09:04:33;;;;;;;1.00;0.70;;;23.40;23.80;;;;;;5045535;28;20043;-57
2021/03/20 09:07:05;;;;;;;1.35;0.70;;;23.50;23.80;;;;;;5052141;28;20405;-54
2021/03/20 09:09:50;;;;;;;1.40;0.70;;;23.50;23.80;;;;;;5043741;28;20099;-50
2021/03/20 09:12:33;;;;;;;1.15;0.77;;;23.60;23.70;;;;;;5037809;28;20048;-53
2021/03/20 09:14:59;;;;;;;1.05;0.55;;;23.60;24.10;;;;;;5056164;28;20067;-55
2021/03/20 09:17:33;;;;;;;1.60;0.60;;;23.70;23.60;;;;;;5046985;28;20060;-61
2021/03/20 09:20:23;;;;;;;0.77;0.52;;;23.80;23.50;;;;;;5013600;28;20369;-52
2021/03/20 09:22:51;;;;;;;1.48;0.70;;;23.80;23.50;;;;;;5053283;28;20075;-52
2021/03/20 09:25:38;;;;;;;1.65;0.68;;;23.80;23.60;;;;;;5055417;28;20055;-53
2021/03/20 09:28:17;;;;;;;1.73;0.98;;;23.90;23.60;;;;;;5054857;28;20457;-53
2021/03/20 09:30:47;;;;;;;1.48;0.95;;;23.90;23.70;;;;;;5056194;28;20040;-52
2021/03/20 09:33:31;;;;;;;1.23;0.80;;;23.80;23.80;;;;;;5055582;28;20036;-52
2021/03/20 09:36:02;;;;;;;;;;;23.80;23.90;;;;;;5056192;28;20040;-53
2021/03/20 09:38:34;;;;;;;1.45;0.63;;;23.80;24.00;;;;;;5055011;28;19952;-50
2021/03/20 09:41:13;;;;;;;1.40;0.80;;;23.80;24.20;;;;;;5055010;28;20043;-48
2021/03/20 09:43:44;;;;;;;1.38;0.80;;;23.90;24.30;;;;;;5055495;28;20111;-55
2021/03/20 09:46:29;;;;;;;1.35;0.63;;;24.00;24.40;;;;;;5055690;28;20029;-56
2021/03/20 09:48:56;;;;;;;0.77;0.65;;;24.00;24.50;;;;;;5055560;28;20029;-53
2021/03/20 09:51:49;;;;;;;0.90;0.68;;;24.00;24.60;;;;;;5055558;28;20104;-53
2021/03/20 09:54:27;;;;;;;1.52;0.77;;;24.10;24.70;;;;;;5054775;28;20045;-52
2021/03/20 09:57:12;;;;;;;1.45;0.90;;;24.10;24.80;;;;;;5055348;28;20028;-53
2021/03/20 09:59:37;;;;;;;;;;;24.20;24.90;;;;;;5051536;28;20348;-48
2021/03/20 10:02:07;;;;;;;1.33;0.82;;;24.20;24.90;;;;;;5054992;28;19956;-56
2021/03/20 10:04:36;;;;;;;1.00;0.80;;;24.20;25.00;;;;;;5055395;28;20390;-52
2021/03/20 10:07:20;;;;;;;1.15;0.57;;;24.30;25.00;;;;;;5053199;28;20025;-51
2021/03/20 10:10:13;;;;;;;2.63;0.90;;;24.30;25.10;;;;;;5055549;28;20112;-53
2021/03/20 10:12:44;;;;;;;1.25;0.82;;;24.40;25.10;;;;;;5035495;28;20055;-51
2021/03/20 10:15:23;;;;;;;1.25;0.73;;;24.40;25.60;;;;;;5017985;28;20128;-53
2021/03/20 10:18:11;;;;;;;1.45;0.90;;;24.40;25.10;;;;;;5010765;28;20136;-52
2021/03/20 10:20:51;;;;;;;0.80;0.60;;;24.40;25.10;;;;;;5001087;28;20052;-51
2021/03/20 10:23:38;;;;;;;0.85;0.60;;;24.50;25.10;;;;;;5015765;28;20047;-55
2021/03/20 10:26:32;;;;;;;0.65;0.60;;;24.50;25.10;;;;;;5002705;28;20037;-52
2021/03/20 10:29:06;;;;;;;0.85;0.60;;;24.50;25.10;;;;;;5010410;28;20374;-54
2021/03/20 10:31:45;;;;;;;0.60;0.50;;;24.50;25.10;;;;;;5015189;28;20354;-53
2021/03/20 10:34:14;;;;;;;1.02;0.60;;;24.50;25.10;;;;;;5014117;28;20045;-55
2021/03/20 10:36:44;;;;;;;1.17;0.65;;;24.40;25.10;;;;;;5014923;28;20096;-55
2021/03/20 10:39:19;;;;;;;1.40;0.57;;;24.50;25.10;;;;;;5014790;28;20026;-56
2021/03/20 10:41:45;;;;;;;0.93;0.73;;;24.40;25.00;;;;;;5013623;28;20034;-56
2021/03/20 10:44:19;;;;;;;0.95;0.60;;;24.40;25.00;;;;;;5015151;28;20425;-56
2021/03/20 10:46:46;;;;;;;0.97;0.60;;;24.40;25.00;;;;;;5014948;28;20041;-55
2021/03/20 10:49:23;;;;;;;0.93;0.80;;;24.40;25.10;;;;;;5014052;28;20042;-57
2021/03/20 10:51:53;;;;;;;1.90;0.75;;;24.40;25.00;;;;;;5014958;28;20044;-54
2021/03/20 10:54:21;;;;;;;0.77;0.50;;;24.40;25.00;;;;;;5013856;28;20038;-57
2021/03/20 10:56:49;;;;;;;0.90;0.60;;;24.40;24.90;;;;;;5013303;28;20488;-58
2021/03/20 10:59:21;;;;;;;1.08;0.70;;;24.40;24.90;;;;;;5014194;28;20038;-57
2021/03/20 11:01:47;;;;;;;0.60;0.50;;;24.40;24.80;;;;;;5014382;28;20037;-55
2021/03/20 11:04:30;;;;;;;0.90;0.70;;;24.30;24.80;;;;;;5014637;28;20331;-57
2021/03/20 11:06:57;;;;;;;0.90;0.55;;;24.30;24.80;;;;;;5012936;28;20029;-51
2021/03/20 11:09:32;;;;;;;0.70;0.50;;;24.30;24.90;;;;;;5014271;28;20066;-53
2021/03/20 11:12:02;;;;;;;0.65;0.60;;;24.30;24.90;;;;;;5013000;28;20133;-59
2021/03/20 11:14:29;;;;;;;0.60;0.60;;;24.30;25.00;;;;;;5009749;28;20072;-55
2021/03/20 11:17:10;;;;;;;0.88;0.50;;;24.20;24.90;;;;;;5035724;28;20037;-57
2021/03/20 11:19:37;;;;;;;1.13;0.70;;;24.20;24.80;;;;;;5047166;28;20155;-57
2021/03/20 11:22:24;;;;;;;1.58;0.63;;;24.20;24.90;;;;;;5049058;28;20112;-55
2021/03/20 11:25:05;;;;;;;0.80;0.70;;;24.10;25.00;;;;;;5049211;28;20029;-57
2021/03/20 11:27:34;;;;;;;0.80;0.65;;;24.00;25.10;;;;;;5050387;28;20547;-54
2021/03/20 11:30:13;;;;;;;0.65;0.47;;;24.00;25.10;;;;;;5051644;28;20048;-58
2021/03/20 11:32:43;;;;;;;0.55;0.50;;;24.00;25.10;;;;;;5051107;28;20388;-57
2021/03/20 11:35:20;;;;;;;0.70;0.60;;;24.10;25.10;;;;;;5052248;28;20118;-57
2021/03/20 11:37:46;;;;;;;1.25;0.65;;;24.00;24.90;;;;;;5049846;28;20033;-58
2021/03/20 11:40:30;;;;;;;0.50;0.50;;;24.00;24.80;;;;;;5049790;28;20167;-55
2021/03/20 11:42:59;;;;;;;1.00;0.60;;;23.90;24.80;;;;;;5053094;28;20029;-56
2021/03/20 11:45:34;;;;;;;0.73;0.47;;;23.90;24.80;;;;;;5051794;28;20071;-54
2021/03/20 11:48:12;;;;;;;1.30;0.60;;;23.80;24.80;;;;;;5051744;28;20025;-54
2021/03/20 11:50:39;;;;;;;1.20;0.60;;;23.80;24.80;;;;;;5052675;28;20041;-60
2021/03/20 11:53:15;;;;;;;0.88;0.50;;;23.70;24.80;;;;;;5050263;28;20048;-60
2021/03/20 11:55:43;;;;;;;0.52;0.50;;;23.70;24.80;;;;;;5053002;28;20036;-58
2021/03/20 11:58:30;;;;;;;0.98;0.60;;;23.70;24.80;;;;;;5052672;28;20182;-58
2021/03/20 12:00:59;;;;;;;0.90;0.70;;;23.70;24.80;;;;;;5054130;28;20029;-61
2021/03/20 12:03:32;;;;;;;1.30;0.70;;;23.60;24.90;;;;;;5055812;28;20071;-57
2021/03/20 12:06:19;;;;;;;0.70;0.50;;;23.70;24.80;;;;;;5055435;28;20039;-58
2021/03/20 12:08:49;;;;;;;1.02;0.70;;;23.70;24.70;;;;;;5055208;28;20136;-59
2021/03/20 12:11:21;;;;;;;1.13;0.60;;;23.70;24.70;;;;;;5050587;28;20100;-57
2021/03/20 12:13:53;;;;;;;1.15;0.80;;;23.80;24.60;;;;;;5053248;28;20456;-62
2021/03/20 12:16:37;;;;;;;0.93;0.65;;;23.70;24.40;;;;;;5055617;28;20484;-59
2021/03/20 12:19:21;;;;;;;1.27;0.75;;;23.70;24.20;;;;;;5036847;28;20039;-59
2021/03/20 12:22:12;;;;;;;0.93;0.82;;;23.70;24.10;;;;;;5037785;28;20122;-59
2021/03/20 12:24:48;;;;;;;1.42;0.98;;;23.70;24.00;;;;;;5054401;28;20048;-57
2021/03/20 12:27:30;;;;;;;1.90;1.00;;;23.70;23.90;;;;;;5056398;28;20033;-61
2021/03/20 12:30:04;;;;;;;1.27;0.90;;;23.60;23.80;;;;;;5036937;28;20055;-58
2021/03/20 12:32:37;;;;;;;1.35;0.82;;;23.60;23.80;;;;;;5053730;28;20043;-61
2021/03/20 12:35:18;;;;;;;1.30;1.00;;;23.60;23.80;;;;;;5036851;28;20116;-62
2021/03/20 12:38:03;;;;;;;1.20;0.90;;;23.60;23.70;;;;;;5053977;28;20458;-59
2021/03/20 12:40:33;;;;;;;0.95;0.85;;;23.50;23.70;;;;;;5052843;28;20057;-52
2021/03/20 12:43:01;;;;;;;1.42;1.08;;;23.50;23.70;;;;;;5055724;28;20029;-59
2021/03/20 12:45:29;;;;;;;1.33;0.90;;;23.50;23.70;;;;;;5055034;28;20382;-59
2021/03/20 12:47:54;;;;;;;1.48;1.08;;;23.40;23.70;;;;;;5037519;28;20072;-60
2021/03/20 12:50:20;;;;;;;1.17;0.98;;;23.40;23.60;;;;;;5038019;28;20072;-59
2021/03/20 12:52:48;;;;;;;1.13;0.98;;;23.40;23.60;;;;;;5017961;28;20124;-61
2021/03/20 12:55:17;;;;;;;1.48;0.95;;;23.40;23.60;;;;;;5034987;28;20037;-61
2021/03/20 12:57:44;;;;;;;1.60;0.88;;;23.40;23.50;;;;;;5052704;28;20037;-62
2021/03/20 13:00:21;;;;;;;1.33;1.13;;;23.40;23.50;;;;;;5033896;28;20030;-61
2021/03/20 13:02:48;;;;;;;1.52;1.08;;;23.40;23.40;;;;;;5048906;28;21568;-62
2021/03/20 13:05:34;;;;;;;1.65;0.88;;;23.30;23.40;;;;;;5006454;28;20452;-62
2021/03/20 13:07:59;;;;;;;1.45;0.98;;;23.40;23.40;;;;;;5054288;28;20478;-63
2021/03/20 13:10:27;;;;;;;1.17;0.80;;;23.40;23.40;;;;;;5054045;28;20037;-62
2021/03/20 13:12:57;;;;;;;0.85;0.75;;;23.30;23.40;;;;;;5054140;28;20025;-62
2021/03/20 13:15:25;;;;;;;1.15;0.82;;;23.30;23.40;;;;;;5037416;28;20729;-64
2021/03/20 13:17:52;;;;;;;1.50;1.00;;;23.30;23.30;;;;;;5007587;28;20365;-62
2021/03/20 13:20:21;;;;;;;1.55;0.90;;;23.30;23.30;;;;;;5014630;28;20042;-63
2021/03/20 13:22:50;;;;;;;1.42;0.80;;;23.30;23.30;;;;;;5014404;28;20029;-63
2021/03/20 13:25:35;;;;;;;1.00;0.88;;;23.30;23.30;;;;;;5014381;28;20037;-67
2021/03/20 13:28:07;;;;;;;1.25;0.93;;;23.20;23.20;;;;;;5009528;28;20026;-62
2021/03/20 13:30:38;;;;;;;1.08;0.98;;;23.30;23.30;;;;;;5014625;28;20096;-63